sensor_id;sensor_type;location;lat;lon;timestamp;P1;durP1;ratioP1;P2;durP2;ratioP2
15944;SDS011;30172;48.832;8.732;2024-01-15T00:01:04;26.13;;;11.57;;
15944;SDS011;30172;48.832;8.732;2024-01-15T00:03:29;25.33;;;10.70;;
15944;SDS011;30172;48.832;8.732;2024-01-15T00:05:54;23.83;;;10.60;;
15944;SDS011;30172;48.832;8.732;2024-01-15T00:08:20;26.53;;;11.23;;
15944;SDS011;30172;48.832;8.732;2024-01-15T00:10:45;28.57;;;11.20;;
15944;SDS011;30172;48.832;8.732;2024-01-15T00:13:10;28.07;;;10.97;;
15944;SDS011;30172;48.832;8.732;2024-01-15T00:15:36;28.20;;;11.57;;
15944;SDS011;30172;48.832;8.732;2024-01-15T00:18:01;29.20;;;12.13;;
15944;SDS011;30172;48.832;8.732;2024-01-15T00:20:26;30.97;;;12.20;;
15944;SDS011;30172;48.832;8.732;2024-01-15T00:22:51;27.43;;;11.87;;
15944;SDS011;30172;48.832;8.732;2024-01-15T00:25:17;28.23;;;12.03;;
15944;SDS011;30172;48.832;8.732;2024-01-15T00:27:42;28.63;;;11.20;;
15944;SDS011;30172;48.832;8.732;2024-01-15T00:30:08;28.57;;;11.63;;
15944;SDS011;30172;48.832;8.732;2024-01-15T00:32:34;27.97;;;12.70;;
15944;SDS011;30172;48.832;8.732;2024-01-15T00:34:59;28.13;;;11.80;;
15944;SDS011;30172;48.832;8.732;2024-01-15T00:37:25;29.57;;;12.73;;
15944;SDS011;30172;48.832;8.732;2024-01-15T00:39:50;31.87;;;11.90;;
15944;SDS011;30172;48.832;8.732;2024-01-15T00:42:15;26.93;;;12.30;;
15944;SDS011;30172;48.832;8.732;2024-01-15T00:44:41;32.43;;;13.33;;
15944;SDS011;30172;48.832;8.732;2024-01-15T00:47:07;34.37;;;12.93;;
15944;SDS011;30172;48.832;8.732;2024-01-15T00:49:32;29.63;;;11.70;;
15944;SDS011;30172;48.832;8.732;2024-01-15T00:51:58;27.73;;;12.07;;
15944;SDS011;30172;48.832;8.732;2024-01-15T00:54:23;25.97;;;10.97;;
15944;SDS011;30172;48.832;8.732;2024-01-15T00:56:48;28.70;;;11.53;;
15944;SDS011;30172;48.832;8.732;2024-01-15T00:59:14;28.97;;;12.70;;
15944;SDS011;30172;48.832;8.732;2024-01-15T01:01:42;28.73;;;12.70;;
15944;SDS011;30172;48.832;8.732;2024-01-15T01:04:11;28.03;;;11.00;;
15944;SDS011;30172;48.832;8.732;2024-01-15T01:06:36;29.70;;;12.27;;
15944;SDS011;30172;48.832;8.732;2024-01-15T01:09:02;27.10;;;11.60;;
15944;SDS011;30172;48.832;8.732;2024-01-15T01:11:27;28.53;;;11.73;;
15944;SDS011;30172;48.832;8.732;2024-01-15T01:13:52;26.17;;;11.43;;
15944;SDS011;30172;48.832;8.732;2024-01-15T01:16:18;29.67;;;12.30;;
15944;SDS011;30172;48.832;8.732;2024-01-15T01:18:43;24.17;;;10.50;;
15944;SDS011;30172;48.832;8.732;2024-01-15T01:21:08;32.17;;;11.33;;
15944;SDS011;30172;48.832;8.732;2024-01-15T01:23:34;27.13;;;11.37;;
15944;SDS011;30172;48.832;8.732;2024-01-15T01:25:59;26.93;;;11.50;;
15944;SDS011;30172;48.832;8.732;2024-01-15T01:28:24;25.90;;;11.57;;
15944;SDS011;30172;48.832;8.732;2024-01-15T01:30:49;29.87;;;12.77;;
15944;SDS011;30172;48.832;8.732;2024-01-15T01:33:15;30.87;;;12.30;;
15944;SDS011;30172;48.832;8.732;2024-01-15T01:35:40;30.27;;;12.23;;
15944;SDS011;30172;48.832;8.732;2024-01-15T01:38:06;26.43;;;12.00;;
15944;SDS011;30172;48.832;8.732;2024-01-15T01:40:31;24.73;;;12.13;;
15944;SDS011;30172;48.832;8.732;2024-01-15T01:42:56;24.50;;;11.20;;
15944;SDS011;30172;48.832;8.732;2024-01-15T01:45:27;27.30;;;11.87;;
15944;SDS011;30172;48.832;8.732;2024-01-15T01:48:02;29.33;;;11.77;;
15944;SDS011;30172;48.832;8.732;2024-01-15T01:50:29;29.13;;;12.33;;
15944;SDS011;30172;48.832;8.732;2024-01-15T01:52:55;27.37;;;11.47;;
15944;SDS011;30172;48.832;8.732;2024-01-15T01:55:20;27.37;;;10.87;;
15944;SDS011;30172;48.832;8.732;2024-01-15T01:57:46;26.63;;;11.27;;
15944;SDS011;30172;48.832;8.732;2024-01-15T02:00:12;24.13;;;10.63;;
15944;SDS011;30172;48.832;8.732;2024-01-15T02:02:38;28.37;;;11.20;;
15944;SDS011;30172;48.832;8.732;2024-01-15T02:05:04;32.50;;;11.13;;
15944;SDS011;30172;48.832;8.732;2024-01-15T02:07:30;25.73;;;11.23;;
15944;SDS011;30172;48.832;8.732;2024-01-15T02:09:56;28.77;;;11.27;;
15944;SDS011;30172;48.832;8.732;2024-01-15T02:12:22;24.40;;;10.90;;
15944;SDS011;30172;48.832;8.732;2024-01-15T02:14:47;25.83;;;11.70;;
15944;SDS011;30172;48.832;8.732;2024-01-15T02:17:13;23.20;;;11.13;;
15944;SDS011;30172;48.832;8.732;2024-01-15T02:19:38;23.93;;;11.87;;
15944;SDS011;30172;48.832;8.732;2024-01-15T02:22:05;26.40;;;10.37;;
15944;SDS011;30172;48.832;8.732;2024-01-15T02:24:31;25.27;;;10.50;;
15944;SDS011;30172;48.832;8.732;2024-01-15T02:26:56;24.23;;;10.20;;
15944;SDS011;30172;48.832;8.732;2024-01-15T02:29:21;27.07;;;10.43;;
15944;SDS011;30172;48.832;8.732;2024-01-15T02:31:47;24.47;;;11.30;;
15944;SDS011;30172;48.832;8.732;2024-01-15T02:34:12;19.20;;;10.07;;
15944;SDS011;30172;48.832;8.732;2024-01-15T02:36:38;19.87;;;8.87;;
15944;SDS011;30172;48.832;8.732;2024-01-15T02:39:03;20.53;;;8.93;;
15944;SDS011;30172;48.832;8.732;2024-01-15T02:41:28;20.03;;;10.07;;
15944;SDS011;30172;48.832;8.732;2024-01-15T02:43:54;23.37;;;9.53;;
15944;SDS011;30172;48.832;8.732;2024-01-15T02:46:19;18.27;;;8.50;;
15944;SDS011;30172;48.832;8.732;2024-01-15T02:48:44;21.23;;;9.00;;
15944;SDS011;30172;48.832;8.732;2024-01-15T02:51:10;20.07;;;8.60;;
15944;SDS011;30172;48.832;8.732;2024-01-15T02:53:36;20.93;;;8.80;;
15944;SDS011;30172;48.832;8.732;2024-01-15T02:56:01;19.47;;;9.30;;
15944;SDS011;30172;48.832;8.732;2024-01-15T02:58:27;23.57;;;8.57;;
15944;SDS011;30172;48.832;8.732;2024-01-15T03:00:52;21.30;;;8.77;;
15944;SDS011;30172;48.832;8.732;2024-01-15T03:03:17;16.63;;;7.67;;
15944;SDS011;30172;48.832;8.732;2024-01-15T03:05:43;21.33;;;8.90;;
15944;SDS011;30172;48.832;8.732;2024-01-15T03:08:08;17.20;;;8.67;;
15944;SDS011;30172;48.832;8.732;2024-01-15T03:10:33;18.73;;;8.60;;
15944;SDS011;30172;48.832;8.732;2024-01-15T03:12:58;16.27;;;7.67;;
15944;SDS011;30172;48.832;8.732;2024-01-15T03:15:24;18.83;;;7.93;;
15944;SDS011;30172;48.832;8.732;2024-01-15T03:17:49;16.63;;;7.87;;
15944;SDS011;30172;48.832;8.732;2024-01-15T03:20:14;16.93;;;8.60;;
15944;SDS011;30172;48.832;8.732;2024-01-15T03:22:40;18.47;;;7.47;;
15944;SDS011;30172;48.832;8.732;2024-01-15T03:25:06;16.20;;;7.50;;
15944;SDS011;30172;48.832;8.732;2024-01-15T03:27:31;18.47;;;8.30;;
15944;SDS011;30172;48.832;8.732;2024-01-15T03:29:57;18.43;;;8.17;;
15944;SDS011;30172;48.832;8.732;2024-01-15T03:32:22;16.53;;;8.20;;
15944;SDS011;30172;48.832;8.732;2024-01-15T03:34:47;14.47;;;7.23;;
15944;SDS011;30172;48.832;8.732;2024-01-15T03:37:13;16.80;;;7.40;;
15944;SDS011;30172;48.832;8.732;2024-01-15T03:39:38;16.70;;;7.27;;
15944;SDS011;30172;48.832;8.732;2024-01-15T03:42:04;14.60;;;7.53;;
15944;SDS011;30172;48.832;8.732;2024-01-15T03:44:29;15.23;;;7.20;;
15944;SDS011;30172;48.832;8.732;2024-01-15T03:46:55;14.93;;;7.03;;
15944;SDS011;30172;48.832;8.732;2024-01-15T03:49:20;15.03;;;7.70;;
15944;SDS011;30172;48.832;8.732;2024-01-15T03:51:45;13.70;;;7.33;;
15944;SDS011;30172;48.832;8.732;2024-01-15T03:54:11;16.63;;;8.63;;
15944;SDS011;30172;48.832;8.732;2024-01-15T03:56:36;14.97;;;7.90;;
15944;SDS011;30172;48.832;8.732;2024-01-15T03:59:01;14.30;;;7.50;;
15944;SDS011;30172;48.832;8.732;2024-01-15T04:01:27;17.60;;;7.37;;
15944;SDS011;30172;48.832;8.732;2024-01-15T04:03:52;15.57;;;7.43;;
15944;SDS011;30172;48.832;8.732;2024-01-15T04:06:17;13.73;;;7.13;;
15944;SDS011;30172;48.832;8.732;2024-01-15T04:08:43;12.83;;;6.67;;
15944;SDS011;30172;48.832;8.732;2024-01-15T04:11:08;11.63;;;6.10;;
15944;SDS011;30172;48.832;8.732;2024-01-15T04:13:33;15.33;;;7.13;;
15944;SDS011;30172;48.832;8.732;2024-01-15T04:15:59;13.07;;;6.33;;
15944;SDS011;30172;48.832;8.732;2024-01-15T04:18:25;11.80;;;5.97;;
15944;SDS011;30172;48.832;8.732;2024-01-15T04:20:50;13.73;;;7.07;;
15944;SDS011;30172;48.832;8.732;2024-01-15T04:23:16;9.50;;;5.70;;
15944;SDS011;30172;48.832;8.732;2024-01-15T04:25:41;12.47;;;6.50;;
15944;SDS011;30172;48.832;8.732;2024-01-15T04:28:08;13.70;;;6.97;;
15944;SDS011;30172;48.832;8.732;2024-01-15T04:30:33;12.60;;;7.13;;
15944;SDS011;30172;48.832;8.732;2024-01-15T04:32:59;11.40;;;5.63;;
15944;SDS011;30172;48.832;8.732;2024-01-15T04:35:24;15.37;;;6.70;;
15944;SDS011;30172;48.832;8.732;2024-01-15T04:37:49;11.37;;;5.90;;
15944;SDS011;30172;48.832;8.732;2024-01-15T04:40:15;9.83;;;5.13;;
15944;SDS011;30172;48.832;8.732;2024-01-15T04:42:40;10.07;;;5.43;;
15944;SDS011;30172;48.832;8.732;2024-01-15T04:45:05;11.60;;;6.00;;
15944;SDS011;30172;48.832;8.732;2024-01-15T04:47:31;9.10;;;5.43;;
15944;SDS011;30172;48.832;8.732;2024-01-15T04:49:56;10.37;;;5.23;;
15944;SDS011;30172;48.832;8.732;2024-01-15T04:52:22;14.63;;;5.57;;
15944;SDS011;30172;48.832;8.732;2024-01-15T04:54:47;10.43;;;5.93;;
15944;SDS011;30172;48.832;8.732;2024-01-15T04:57:12;14.27;;;6.97;;
15944;SDS011;30172;48.832;8.732;2024-01-15T04:59:38;11.77;;;6.37;;
15944;SDS011;30172;48.832;8.732;2024-01-15T05:02:03;14.47;;;6.83;;
15944;SDS011;30172;48.832;8.732;2024-01-15T05:04:28;14.57;;;7.20;;
15944;SDS011;30172;48.832;8.732;2024-01-15T05:06:55;10.63;;;5.60;;
15944;SDS011;30172;48.832;8.732;2024-01-15T05:09:20;13.33;;;6.80;;
15944;SDS011;30172;48.832;8.732;2024-01-15T05:11:45;10.03;;;6.00;;
15944;SDS011;30172;48.832;8.732;2024-01-15T05:14:11;8.77;;;5.70;;
15944;SDS011;30172;48.832;8.732;2024-01-15T05:16:39;7.77;;;5.40;;
15944;SDS011;30172;48.832;8.732;2024-01-15T05:19:06;9.63;;;4.73;;
15944;SDS011;30172;48.832;8.732;2024-01-15T05:21:32;8.87;;;5.97;;
15944;SDS011;30172;48.832;8.732;2024-01-15T05:23:57;9.67;;;5.33;;
15944;SDS011;30172;48.832;8.732;2024-01-15T05:26:23;9.33;;;5.43;;
15944;SDS011;30172;48.832;8.732;2024-01-15T05:28:48;10.50;;;5.20;;
15944;SDS011;30172;48.832;8.732;2024-01-15T05:31:13;12.27;;;5.50;;
15944;SDS011;30172;48.832;8.732;2024-01-15T05:33:39;9.70;;;5.03;;
15944;SDS011;30172;48.832;8.732;2024-01-15T05:36:05;10.40;;;5.47;;
15944;SDS011;30172;48.832;8.732;2024-01-15T05:38:31;8.43;;;5.10;;
15944;SDS011;30172;48.832;8.732;2024-01-15T05:40:56;9.57;;;4.40;;
15944;SDS011;30172;48.832;8.732;2024-01-15T05:43:21;10.43;;;4.93;;
15944;SDS011;30172;48.832;8.732;2024-01-15T05:45:47;7.07;;;4.63;;
15944;SDS011;30172;48.832;8.732;2024-01-15T05:48:12;12.03;;;4.80;;
15944;SDS011;30172;48.832;8.732;2024-01-15T05:50:37;7.37;;;4.30;;
15944;SDS011;30172;48.832;8.732;2024-01-15T05:53:03;6.57;;;3.60;;
15944;SDS011;30172;48.832;8.732;2024-01-15T05:55:28;6.23;;;4.27;;
15944;SDS011;30172;48.832;8.732;2024-01-15T05:57:54;7.37;;;4.30;;
15944;SDS011;30172;48.832;8.732;2024-01-15T06:00:19;7.37;;;4.20;;
15944;SDS011;30172;48.832;8.732;2024-01-15T06:02:44;5.20;;;3.83;;
15944;SDS011;30172;48.832;8.732;2024-01-15T06:05:10;9.60;;;5.57;;
15944;SDS011;30172;48.832;8.732;2024-01-15T06:07:35;7.63;;;4.10;;
15944;SDS011;30172;48.832;8.732;2024-01-15T06:10:01;7.50;;;3.70;;
15944;SDS011;30172;48.832;8.732;2024-01-15T06:12:27;6.87;;;3.80;;
15944;SDS011;30172;48.832;8.732;2024-01-15T06:14:53;6.43;;;3.80;;
15944;SDS011;30172;48.832;8.732;2024-01-15T06:17:18;7.60;;;3.80;;
15944;SDS011;30172;48.832;8.732;2024-01-15T06:19:43;6.03;;;3.33;;
15944;SDS011;30172;48.832;8.732;2024-01-15T06:22:09;6.40;;;3.30;;
15944;SDS011;30172;48.832;8.732;2024-01-15T06:24:34;4.30;;;3.10;;
15944;SDS011;30172;48.832;8.732;2024-01-15T06:27:00;6.33;;;3.63;;
15944;SDS011;30172;48.832;8.732;2024-01-15T06:29:25;6.70;;;3.50;;
15944;SDS011;30172;48.832;8.732;2024-01-15T06:31:52;5.00;;;2.70;;
15944;SDS011;30172;48.832;8.732;2024-01-15T06:34:17;6.97;;;3.97;;
15944;SDS011;30172;48.832;8.732;2024-01-15T06:36:43;8.60;;;3.10;;
15944;SDS011;30172;48.832;8.732;2024-01-15T06:39:08;7.20;;;4.27;;
15944;SDS011;30172;48.832;8.732;2024-01-15T06:41:35;4.80;;;3.17;;
15944;SDS011;30172;48.832;8.732;2024-01-15T06:44:02;5.90;;;3.83;;
15944;SDS011;30172;48.832;8.732;2024-01-15T06:46:28;12.93;;;5.97;;
15944;SDS011;30172;48.832;8.732;2024-01-15T06:48:53;7.47;;;4.00;;
15944;SDS011;30172;48.832;8.732;2024-01-15T06:51:18;7.70;;;3.77;;
15944;SDS011;30172;48.832;8.732;2024-01-15T06:53:44;6.43;;;3.43;;
15944;SDS011;30172;48.832;8.732;2024-01-15T06:56:09;7.37;;;3.53;;
15944;SDS011;30172;48.832;8.732;2024-01-15T06:58:34;6.07;;;2.70;;
15944;SDS011;30172;48.832;8.732;2024-01-15T07:01:00;5.00;;;3.50;;
15944;SDS011;30172;48.832;8.732;2024-01-15T07:03:25;5.07;;;3.33;;
15944;SDS011;30172;48.832;8.732;2024-01-15T07:05:51;4.23;;;2.77;;
15944;SDS011;30172;48.832;8.732;2024-01-15T07:08:16;6.27;;;4.23;;
15944;SDS011;30172;48.832;8.732;2024-01-15T07:10:41;5.67;;;3.40;;
15944;SDS011;30172;48.832;8.732;2024-01-15T07:13:07;6.30;;;3.20;;
15944;SDS011;30172;48.832;8.732;2024-01-15T07:15:32;5.23;;;2.90;;
15944;SDS011;30172;48.832;8.732;2024-01-15T07:17:57;4.47;;;2.90;;
15944;SDS011;30172;48.832;8.732;2024-01-15T07:20:23;5.50;;;2.90;;
15944;SDS011;30172;48.832;8.732;2024-01-15T07:22:48;3.97;;;2.90;;
15944;SDS011;30172;48.832;8.732;2024-01-15T07:25:14;5.93;;;3.10;;
15944;SDS011;30172;48.832;8.732;2024-01-15T07:27:41;6.10;;;2.93;;
15944;SDS011;30172;48.832;8.732;2024-01-15T07:30:09;5.13;;;3.53;;
15944;SDS011;30172;48.832;8.732;2024-01-15T07:32:35;4.77;;;3.30;;
15944;SDS011;30172;48.832;8.732;2024-01-15T07:35:00;7.03;;;3.30;;
15944;SDS011;30172;48.832;8.732;2024-01-15T07:37:26;4.20;;;2.77;;
15944;SDS011;30172;48.832;8.732;2024-01-15T07:39:51;6.47;;;2.87;;
15944;SDS011;30172;48.832;8.732;2024-01-15T07:42:17;5.87;;;2.40;;
15944;SDS011;30172;48.832;8.732;2024-01-15T07:44:42;7.17;;;2.70;;
15944;SDS011;30172;48.832;8.732;2024-01-15T07:47:07;6.70;;;2.60;;
15944;SDS011;30172;48.832;8.732;2024-01-15T07:49:34;4.37;;;2.70;;
15944;SDS011;30172;48.832;8.732;2024-01-15T07:51:59;7.30;;;2.83;;
15944;SDS011;30172;48.832;8.732;2024-01-15T07:54:25;4.63;;;2.90;;
15944;SDS011;30172;48.832;8.732;2024-01-15T07:56:57;4.53;;;2.97;;
15944;SDS011;30172;48.832;8.732;2024-01-15T07:59:23;6.77;;;3.23;;
15944;SDS011;30172;48.832;8.732;2024-01-15T08:01:49;9.90;;;4.40;;
15944;SDS011;30172;48.832;8.732;2024-01-15T08:04:14;5.50;;;3.20;;
15944;SDS011;30172;48.832;8.732;2024-01-15T08:06:40;6.93;;;4.40;;
15944;SDS011;30172;48.832;8.732;2024-01-15T08:09:05;8.57;;;3.93;;
15944;SDS011;30172;48.832;8.732;2024-01-15T08:11:30;4.60;;;2.77;;
15944;SDS011;30172;48.832;8.732;2024-01-15T08:13:56;3.10;;;2.30;;
15944;SDS011;30172;48.832;8.732;2024-01-15T08:16:21;4.60;;;2.57;;
15944;SDS011;30172;48.832;8.732;2024-01-15T08:18:47;5.83;;;2.70;;
15944;SDS011;30172;48.832;8.732;2024-01-15T08:21:12;5.83;;;2.70;;
15944;SDS011;30172;48.832;8.732;2024-01-15T08:23:38;4.73;;;2.70;;
15944;SDS011;30172;48.832;8.732;2024-01-15T08:26:03;4.77;;;2.90;;
15944;SDS011;30172;48.832;8.732;2024-01-15T08:28:29;5.27;;;3.03;;
15944;SDS011;30172;48.832;8.732;2024-01-15T08:30:54;7.47;;;4.63;;
15944;SDS011;30172;48.832;8.732;2024-01-15T08:33:20;5.20;;;3.40;;
15944;SDS011;30172;48.832;8.732;2024-01-15T08:35:45;5.93;;;3.40;;
15944;SDS011;30172;48.832;8.732;2024-01-15T08:38:10;6.70;;;3.40;;
15944;SDS011;30172;48.832;8.732;2024-01-15T08:40:36;4.17;;;3.00;;
15944;SDS011;30172;48.832;8.732;2024-01-15T08:43:01;9.47;;;4.10;;
15944;SDS011;30172;48.832;8.732;2024-01-15T08:45:27;6.43;;;3.03;;
15944;SDS011;30172;48.832;8.732;2024-01-15T08:47:52;6.27;;;3.13;;
15944;SDS011;30172;48.832;8.732;2024-01-15T08:50:17;6.30;;;4.30;;
15944;SDS011;30172;48.832;8.732;2024-01-15T08:52:43;6.43;;;3.97;;
15944;SDS011;30172;48.832;8.732;2024-01-15T08:55:08;5.47;;;3.47;;
15944;SDS011;30172;48.832;8.732;2024-01-15T08:57:33;6.43;;;3.83;;
15944;SDS011;30172;48.832;8.732;2024-01-15T08:59:59;5.90;;;3.80;;
15944;SDS011;30172;48.832;8.732;2024-01-15T09:02:25;7.23;;;5.20;;
15944;SDS011;30172;48.832;8.732;2024-01-15T09:04:50;6.03;;;3.33;;
15944;SDS011;30172;48.832;8.732;2024-01-15T09:07:16;6.10;;;3.87;;
15944;SDS011;30172;48.832;8.732;2024-01-15T09:09:42;9.37;;;4.47;;
15944;SDS011;30172;48.832;8.732;2024-01-15T09:12:07;5.83;;;3.40;;
15944;SDS011;30172;48.832;8.732;2024-01-15T09:14:33;5.63;;;3.37;;
15944;SDS011;30172;48.832;8.732;2024-01-15T09:16:59;9.40;;;6.30;;
15944;SDS011;30172;48.832;8.732;2024-01-15T09:19:24;7.93;;;3.43;;
15944;SDS011;30172;48.832;8.732;2024-01-15T09:21:49;9.33;;;4.07;;
15944;SDS011;30172;48.832;8.732;2024-01-15T09:24:15;6.80;;;3.97;;
15944;SDS011;30172;48.832;8.732;2024-01-15T09:26:40;6.03;;;3.67;;
15944;SDS011;30172;48.832;8.732;2024-01-15T09:29:06;6.47;;;3.97;;
15944;SDS011;30172;48.832;8.732;2024-01-15T09:31:31;7.07;;;4.77;;
15944;SDS011;30172;48.832;8.732;2024-01-15T09:33:56;7.07;;;3.83;;
15944;SDS011;30172;48.832;8.732;2024-01-15T09:36:23;5.90;;;3.53;;
15944;SDS011;30172;48.832;8.732;2024-01-15T09:38:49;7.47;;;3.80;;
15944;SDS011;30172;48.832;8.732;2024-01-15T09:41:14;6.27;;;3.20;;
15944;SDS011;30172;48.832;8.732;2024-01-15T09:43:40;5.77;;;3.50;;
15944;SDS011;30172;48.832;8.732;2024-01-15T09:46:05;7.20;;;4.13;;
15944;SDS011;30172;48.832;8.732;2024-01-15T09:48:31;7.20;;;3.97;;
15944;SDS011;30172;48.832;8.732;2024-01-15T09:50:59;6.17;;;4.20;;
15944;SDS011;30172;48.832;8.732;2024-01-15T09:53:26;7.00;;;3.87;;
15944;SDS011;30172;48.832;8.732;2024-01-15T09:55:52;6.83;;;4.30;;
15944;SDS011;30172;48.832;8.732;2024-01-15T09:58:18;8.30;;;4.47;;
15944;SDS011;30172;48.832;8.732;2024-01-15T10:00:44;12.90;;;6.17;;
15944;SDS011;30172;48.832;8.732;2024-01-15T10:03:09;7.97;;;5.10;;
15944;SDS011;30172;48.832;8.732;2024-01-15T10:05:36;6.53;;;3.67;;
15944;SDS011;30172;48.832;8.732;2024-01-15T10:08:02;6.37;;;4.07;;
15944;SDS011;30172;48.832;8.732;2024-01-15T10:10:28;14.83;;;8.40;;
15944;SDS011;30172;48.832;8.732;2024-01-15T10:12:53;9.37;;;5.37;;
15944;SDS011;30172;48.832;8.732;2024-01-15T10:15:22;10.13;;;4.37;;
15944;SDS011;30172;48.832;8.732;2024-01-15T10:17:48;11.40;;;7.00;;
15944;SDS011;30172;48.832;8.732;2024-01-15T10:20:13;7.20;;;4.27;;
15944;SDS011;30172;48.832;8.732;2024-01-15T10:22:42;6.87;;;4.43;;
15944;SDS011;30172;48.832;8.732;2024-01-15T10:25:16;7.40;;;3.97;;
15944;SDS011;30172;48.832;8.732;2024-01-15T10:27:47;8.63;;;4.87;;
15944;SDS011;30172;48.832;8.732;2024-01-15T10:30:24;7.73;;;4.57;;
15944;SDS011;30172;48.832;8.732;2024-01-15T10:32:57;9.20;;;4.70;;
15944;SDS011;30172;48.832;8.732;2024-01-15T10:35:23;8.37;;;4.30;;
15944;SDS011;30172;48.832;8.732;2024-01-15T10:37:52;7.40;;;3.93;;
15944;SDS011;30172;48.832;8.732;2024-01-15T10:40:18;6.33;;;3.93;;
15944;SDS011;30172;48.832;8.732;2024-01-15T10:42:43;7.23;;;4.00;;
15944;SDS011;30172;48.832;8.732;2024-01-15T10:45:09;7.17;;;4.20;;
15944;SDS011;30172;48.832;8.732;2024-01-15T10:47:34;6.17;;;4.33;;
15944;SDS011;30172;48.832;8.732;2024-01-15T10:50:00;8.90;;;6.10;;
15944;SDS011;30172;48.832;8.732;2024-01-15T10:52:27;6.50;;;4.23;;
15944;SDS011;30172;48.832;8.732;2024-01-15T10:54:53;11.00;;;5.87;;
15944;SDS011;30172;48.832;8.732;2024-01-15T10:57:18;9.40;;;4.83;;
15944;SDS011;30172;48.832;8.732;2024-01-15T10:59:46;6.40;;;3.70;;
15944;SDS011;30172;48.832;8.732;2024-01-15T11:02:13;10.23;;;6.07;;
15944;SDS011;30172;48.832;8.732;2024-01-15T11:04:39;10.27;;;6.43;;
15944;SDS011;30172;48.832;8.732;2024-01-15T11:07:04;5.83;;;3.10;;
15944;SDS011;30172;48.832;8.732;2024-01-15T11:09:30;6.30;;;4.30;;
15944;SDS011;30172;48.832;8.732;2024-01-15T11:12:12;7.60;;;4.03;;
15944;SDS011;30172;48.832;8.732;2024-01-15T11:14:42;7.63;;;5.37;;
15944;SDS011;30172;48.832;8.732;2024-01-15T11:17:11;7.60;;;3.77;;
15944;SDS011;30172;48.832;8.732;2024-01-15T11:22:07;4.40;;;2.93;;
15944;SDS011;30172;48.832;8.732;2024-01-15T11:24:34;4.80;;;2.87;;
15944;SDS011;30172;48.832;8.732;2024-01-15T11:27:03;5.07;;;3.27;;
15944;SDS011;30172;48.832;8.732;2024-01-15T11:29:29;3.57;;;2.90;;
15944;SDS011;30172;48.832;8.732;2024-01-15T11:34:54;5.47;;;3.63;;
15944;SDS011;30172;48.832;8.732;2024-01-15T11:37:24;5.07;;;3.13;;
15944;SDS011;30172;48.832;8.732;2024-01-15T11:39:51;5.53;;;3.20;;
15944;SDS011;30172;48.832;8.732;2024-01-15T11:42:17;5.00;;;2.60;;
15944;SDS011;30172;48.832;8.732;2024-01-15T11:44:43;3.23;;;2.83;;
15944;SDS011;30172;48.832;8.732;2024-01-15T11:47:09;5.33;;;2.80;;
15944;SDS011;30172;48.832;8.732;2024-01-15T11:52:15;5.17;;;2.53;;
15944;SDS011;30172;48.832;8.732;2024-01-15T11:54:43;4.70;;;2.47;;
15944;SDS011;30172;48.832;8.732;2024-01-15T11:57:18;4.47;;;2.30;;
15944;SDS011;30172;48.832;8.732;2024-01-15T11:59:52;4.50;;;3.10;;
15944;SDS011;30172;48.832;8.732;2024-01-15T12:02:17;3.47;;;2.73;;
15944;SDS011;30172;48.832;8.732;2024-01-15T12:04:43;7.63;;;3.87;;
15944;SDS011;30172;48.832;8.732;2024-01-15T12:07:08;6.53;;;3.47;;
15944;SDS011;30172;48.832;8.732;2024-01-15T12:09:34;5.33;;;3.10;;
15944;SDS011;30172;48.832;8.732;2024-01-15T12:12:02;4.43;;;2.73;;
15944;SDS011;30172;48.832;8.732;2024-01-15T12:14:31;5.03;;;3.27;;
15944;SDS011;30172;48.832;8.732;2024-01-15T12:16:57;5.27;;;3.07;;
15944;SDS011;30172;48.832;8.732;2024-01-15T12:19:22;7.50;;;3.80;;
15944;SDS011;30172;48.832;8.732;2024-01-15T12:21:50;4.37;;;3.07;;
15944;SDS011;30172;48.832;8.732;2024-01-15T12:24:16;6.80;;;3.30;;
15944;SDS011;30172;48.832;8.732;2024-01-15T12:26:42;4.23;;;2.30;;
15944;SDS011;30172;48.832;8.732;2024-01-15T12:29:07;4.07;;;2.53;;
15944;SDS011;30172;48.832;8.732;2024-01-15T12:31:33;3.43;;;2.27;;
15944;SDS011;30172;48.832;8.732;2024-01-15T12:33:58;4.43;;;2.60;;
15944;SDS011;30172;48.832;8.732;2024-01-15T12:36:23;4.40;;;2.37;;
15944;SDS011;30172;48.832;8.732;2024-01-15T12:38:49;5.23;;;2.47;;
15944;SDS011;30172;48.832;8.732;2024-01-15T12:41:14;5.40;;;2.53;;
15944;SDS011;30172;48.832;8.732;2024-01-15T12:43:40;3.50;;;2.53;;
15944;SDS011;30172;48.832;8.732;2024-01-15T12:46:05;3.70;;;2.23;;
15944;SDS011;30172;48.832;8.732;2024-01-15T12:48:31;5.27;;;2.47;;
15944;SDS011;30172;48.832;8.732;2024-01-15T12:50:56;3.57;;;2.50;;
15944;SDS011;30172;48.832;8.732;2024-01-15T12:53:21;3.40;;;2.53;;
15944;SDS011;30172;48.832;8.732;2024-01-15T12:55:47;5.50;;;2.80;;
15944;SDS011;30172;48.832;8.732;2024-01-15T12:58:13;3.80;;;2.80;;
15944;SDS011;30172;48.832;8.732;2024-01-15T13:00:38;3.20;;;2.40;;
15944;SDS011;30172;48.832;8.732;2024-01-15T13:03:04;3.43;;;2.53;;
15944;SDS011;30172;48.832;8.732;2024-01-15T13:05:29;5.20;;;3.40;;
15944;SDS011;30172;48.832;8.732;2024-01-15T13:07:56;5.17;;;3.47;;
15944;SDS011;30172;48.832;8.732;2024-01-15T13:10:21;4.23;;;3.13;;
15944;SDS011;30172;48.832;8.732;2024-01-15T13:12:47;5.40;;;4.03;;
15944;SDS011;30172;48.832;8.732;2024-01-15T13:15:12;6.50;;;3.80;;
15944;SDS011;30172;48.832;8.732;2024-01-15T13:17:38;13.97;;;7.87;;
15944;SDS011;30172;48.832;8.732;2024-01-15T13:20:05;7.87;;;5.47;;
15944;SDS011;30172;48.832;8.732;2024-01-15T13:22:31;15.83;;;9.40;;
15944;SDS011;30172;48.832;8.732;2024-01-15T13:24:57;7.37;;;5.03;;
15944;SDS011;30172;48.832;8.732;2024-01-15T13:27:23;6.53;;;4.80;;
15944;SDS011;30172;48.832;8.732;2024-01-15T13:29:48;6.10;;;3.93;;
15944;SDS011;30172;48.832;8.732;2024-01-15T13:32:13;6.20;;;4.60;;
15944;SDS011;30172;48.832;8.732;2024-01-15T13:34:42;5.77;;;4.70;;
15944;SDS011;30172;48.832;8.732;2024-01-15T13:37:08;5.73;;;4.17;;
15944;SDS011;30172;48.832;8.732;2024-01-15T13:39:34;8.47;;;5.57;;
15944;SDS011;30172;48.832;8.732;2024-01-15T13:42:01;7.70;;;5.20;;
15944;SDS011;30172;48.832;8.732;2024-01-15T13:44:27;6.70;;;5.00;;
15944;SDS011;30172;48.832;8.732;2024-01-15T13:46:52;9.30;;;5.97;;
15944;SDS011;30172;48.832;8.732;2024-01-15T13:49:18;25.73;;;15.60;;
15944;SDS011;30172;48.832;8.732;2024-01-15T13:51:43;27.40;;;15.03;;
15944;SDS011;30172;48.832;8.732;2024-01-15T13:54:08;17.67;;;11.67;;
15944;SDS011;30172;48.832;8.732;2024-01-15T13:56:34;17.47;;;11.33;;
15944;SDS011;30172;48.832;8.732;2024-01-15T13:59:00;10.90;;;7.83;;
15944;SDS011;30172;48.832;8.732;2024-01-15T14:01:25;7.97;;;5.93;;
15944;SDS011;30172;48.832;8.732;2024-01-15T14:03:52;6.87;;;5.10;;
15944;SDS011;30172;48.832;8.732;2024-01-15T14:06:17;8.50;;;5.40;;
15944;SDS011;30172;48.832;8.732;2024-01-15T14:08:42;9.27;;;5.80;;
15944;SDS011;30172;48.832;8.732;2024-01-15T14:11:08;8.03;;;5.97;;
15944;SDS011;30172;48.832;8.732;2024-01-15T14:13:35;7.53;;;4.73;;
15944;SDS011;30172;48.832;8.732;2024-01-15T14:16:00;10.87;;;5.37;;
15944;SDS011;30172;48.832;8.732;2024-01-15T14:18:26;8.83;;;5.93;;
15944;SDS011;30172;48.832;8.732;2024-01-15T14:20:52;8.40;;;6.73;;
15944;SDS011;30172;48.832;8.732;2024-01-15T14:23:18;8.63;;;6.33;;
15944;SDS011;30172;48.832;8.732;2024-01-15T14:25:44;7.67;;;5.60;;
15944;SDS011;30172;48.832;8.732;2024-01-15T14:28:09;8.20;;;6.03;;
15944;SDS011;30172;48.832;8.732;2024-01-15T14:30:35;9.33;;;6.50;;
15944;SDS011;30172;48.832;8.732;2024-01-15T14:33:01;9.53;;;6.70;;
15944;SDS011;30172;48.832;8.732;2024-01-15T14:35:26;9.10;;;6.80;;
15944;SDS011;30172;48.832;8.732;2024-01-15T14:37:51;10.67;;;6.63;;
15944;SDS011;30172;48.832;8.732;2024-01-15T14:40:17;10.23;;;7.30;;